Time;durP1;ratioP1;P1;durP2;ratioP2;P2;SDS_P1;SDS_P2;PMS_P1;PMS_P2;Temp;Humidity;BMP_temperature;BMP_pressure;BME280_temperature;BME280_humidity;BME280_pressure;Samples;Min_cycle;Max_cycle;Signal;HPM_P1;HPM_P2
2022/05/06 00:00:06;;;;;;;2.60;2.40;;;;;;;19.86;54.58;100041.16;4173578;28;20204;-32
2022/05/06 00:02:08;;;;;;;2.33;2.13;;;;;;;19.84;54.71;100039.72;4173403;28;20251;-31
2022/05/06 00:04:10;;;;;;;2.93;2.73;;;;;;;20.14;53.49;100036.47;4172831;28;20208;-34
2022/05/06 00:06:13;;;;;;;2.73;2.53;;;;;;;20.01;53.50;100038.22;4173183;28;20227;-34
2022/05/06 00:08:16;;;;;;;2.70;2.17;;;;;;;20.14;54.15;100041.88;4173610;28;20302;-33
2022/05/06 00:10:18;;;;;;;1.90;1.80;;;;;;;20.00;53.53;100041.13;4176373;28;20235;-32
2022/05/06 00:12:19;;;;;;;3.23;2.33;;;;;;;20.03;53.59;100041.50;4172801;28;20244;-36
2022/05/06 00:14:21;;;;;;;2.23;1.73;;;;;;;20.27;52.49;100043.72;4172347;28;20231;-34
2022/05/06 00:16:24;;;;;;;2.57;2.37;;;;;;;19.87;54.68;100048.19;4173967;28;20235;-32
2022/05/06 00:18:26;;;;;;;2.33;2.23;;;;;;;20.38;52.06;100037.63;4173319;28;20273;-33
2022/05/06 00:20:28;;;;;;;2.20;2.10;;;;;;;20.30;52.15;100036.00;4173905;28;20263;-32
2022/05/06 00:22:29;;;;;;;1.77;1.70;;;;;;;19.89;53.55;100045.28;4173420;28;20232;-32
2022/05/06 00:24:31;;;;;;;2.57;2.37;;;;;;;20.20;52.31;100035.63;4171832;28;20227;-31
2022/05/06 00:26:33;;;;;;;3.07;2.77;;;;;;;20.19;52.94;100033.97;4173398;28;20240;-36
2022/05/06 00:28:36;;;;;;;2.10;2.00;;;;;;;19.87;53.56;100045.50;4176232;28;20701;-34
2022/05/06 00:30:37;;;;;;;2.50;2.30;;;;;;;19.68;54.26;100041.03;4174745;28;20228;-31
2022/05/06 00:32:39;;;;;;;2.37;2.27;;;;;;;19.86;54.07;100043.88;4176168;28;20280;-31
2022/05/06 00:34:41;;;;;;;2.47;2.37;;;;;;;20.07;52.65;100033.81;4176258;28;20232;-31
2022/05/06 00:36:43;;;;;;;2.13;2.03;;;;;;;20.16;53.12;100032.53;4175289;28;20224;-31
2022/05/06 00:38:44;;;;;;;2.57;1.97;;;;;;;20.45;51.52;100033.03;4175474;28;20228;-33
2022/05/06 00:40:46;;;;;;;3.00;2.80;;;;;;;20.66;51.46;100028.31;4178492;28;20277;-33
2022/05/06 00:42:50;;;;;;;3.07;2.73;;;;;;;20.23;51.86;100036.03;4175232;28;20235;-33
2022/05/06 00:44:51;;;;;;;1.80;1.70;;;;;;;19.87;54.11;100037.41;4175935;28;20240;-32
2022/05/06 00:46:56;;;;;;;3.00;2.63;;;;;;;20.02;54.19;100036.31;4171142;28;20463;-31
2022/05/06 00:48:58;;;;;;;2.23;2.13;;;;;;;20.03;53.62;100030.72;4173752;28;20228;-31
2022/05/06 00:51:01;;;;;;;2.37;2.27;;;;;;;20.01;53.96;100031.97;4176334;28;20816;-33
2022/05/06 00:53:06;;;;;;;1.80;1.70;;;;;;;19.74;54.72;100033.94;4175911;28;20235;-33
2022/05/06 00:55:08;;;;;;;3.17;2.70;;;;;;;19.07;56.50;100026.78;4175666;28;20232;-32
2022/05/06 00:57:11;;;;;;;3.97;3.03;;;;;;;20.14;53.37;100009.47;4175506;28;20244;-36
2022/05/06 00:59:13;;;;;;;3.97;3.30;;;;;;;20.04;53.48;100018.03;4176257;28;20231;-31
2022/05/06 01:01:14;;;;;;;2.27;2.17;;;;;;;18.18;57.89;100042.16;4175784;28;20281;-32
2022/05/06 01:03:16;;;;;;;2.00;1.90;;;;;;;18.40;57.41;100021.31;4174533;28;20236;-33
2022/05/06 01:05:19;;;;;;;1.93;1.83;;;;;;;17.95;58.63;100025.50;4176346;28;20631;-31
2022/05/06 01:07:22;;;;;;;2.33;2.13;;;;;;;18.55;57.54;100004.16;4175678;28;20235;-31
2022/05/06 01:09:23;;;;;;;2.17;2.03;;;;;;;19.41;55.57;99999.78;4178390;28;20236;-32
2022/05/06 01:11:26;;;;;;;2.37;2.23;;;;;;;17.55;58.66;100017.22;4175462;28;20303;-30
2022/05/06 01:13:28;;;;;;;1.60;1.60;;;;;;;17.63;59.13;100007.16;4174924;28;20240;-31
2022/05/06 01:15:30;;;;;;;1.97;1.87;;;;;;;17.31;60.80;100002.41;4171441;28;20235;-33
2022/05/06 01:17:31;;;;;;;2.50;2.30;;;;;;;18.34;57.46;99991.69;4175193;28;20223;-31
2022/05/06 01:19:35;;;;;;;2.80;2.53;;;;;;;17.54;59.54;99997.59;4166511;28;20231;-31
2022/05/06 01:21:42;;;;;;;2.93;2.73;;;;;;;17.96;58.50;99990.31;4175457;28;20243;-31
2022/05/06 01:23:44;;;;;;;2.33;2.20;;;;;;;19.56;54.53;99978.81;4175088;28;20243;-31
2022/05/06 01:25:47;;;;;;;1.83;1.77;;;;;;;18.77;55.89;100000.22;4179868;28;20700;-32
2022/05/06 01:27:56;;;;;;;1.57;1.53;;;;;;;18.68;56.96;99997.97;4171840;28;20712;-33
2022/05/06 01:29:59;;;;;;;2.13;2.03;;;;;;;19.67;54.20;99997.03;4162140;28;20452;-33
2022/05/06 01:32:01;;;;;;;2.00;1.90;;;;;;;19.30;55.92;100009.34;4169820;28;20208;-33
2022/05/06 01:34:04;;;;;;;3.07;2.83;;;;;;;19.74;54.29;100004.25;4174356;28;20208;-32
2022/05/06 01:36:08;;;;;;;3.00;2.77;;;;;;;19.05;56.16;100010.00;4172529;28;20657;-31
2022/05/06 01:38:11;;;;;;;2.60;2.40;;;;;;;18.71;56.73;100022.63;4173644;28;20716;-30
2022/05/06 01:40:15;;;;;;;3.80;2.37;;;;;;;19.43;55.52;100014.69;4180431;28;20264;-32
2022/05/06 01:42:23;;;;;;;2.27;2.07;;;;;;;19.93;54.22;100002.53;4171917;28;20242;-32
2022/05/06 01:44:30;;;;;;;2.13;2.03;;;;;;;19.42;55.17;100023.84;4174629;28;20250;-33
2022/05/06 01:46:35;;;;;;;2.53;2.33;;;;;;;19.73;54.13;100014.22;4171431;28;20236;-34
2022/05/06 01:48:38;;;;;;;1.80;1.70;;;;;;;20.15;52.72;100011.16;4169646;28;20262;-33
2022/05/06 01:50:41;;;;;;;2.50;2.40;;;;;;;20.12;53.38;100025.06;4174001;28;20607;-31
2022/05/06 01:52:44;;;;;;;2.83;2.63;;;;;;;19.86;54.27;100018.75;4171104;28;20231;-32
2022/05/06 01:54:46;;;;;;;1.43;1.43;;;;;;;20.06;53.70;100021.34;4175258;28;20232;-32
2022/05/06 01:56:49;;;;;;;2.27;2.17;;;;;;;20.25;53.40;100016.91;4173086;28;20231;-31
2022/05/06 01:58:51;;;;;;;2.33;2.17;;;;;;;19.91;54.57;100027.03;4175709;28;20243;-33
2022/05/06 02:00:53;;;;;;;1.67;1.60;;;;;;;19.85;54.39;100034.09;4172998;28;20235;-32
2022/05/06 02:02:56;;;;;;;1.67;1.57;;;;;;;19.92;54.33;100025.97;4169712;28;20238;-33
2022/05/06 02:07:18;;;;;;;1.53;1.53;;;;;;;20.23;53.22;100029.81;4173860;28;20277;-31
2022/05/06 02:09:20;;;;;;;3.70;2.40;;;;;;;20.68;52.04;100024.31;4175729;28;20236;-34
2022/05/06 02:11:21;;;;;;;4.30;3.07;;;;;;;20.27;53.70;100036.44;4172692;28;20656;-31
2022/05/06 02:13:23;;;;;;;2.97;2.47;;;;;;;20.57;52.62;100030.44;4173076;28;20286;-33
2022/05/06 02:15:25;;;;;;;1.90;1.80;;;;;;;20.77;52.47;100024.91;4174034;28;20248;-32
2022/05/06 02:17:27;;;;;;;3.30;3.10;;;;;;;20.31;53.11;100036.84;4174986;28;20895;-31
2022/05/06 02:19:28;;;;;;;2.80;2.70;;;;;;;20.35;53.14;100036.19;4174980;28;20227;-33
2022/05/06 02:21:31;;;;;;;2.03;1.93;;;;;;;20.43;52.29;100029.69;4174554;28;20228;-34
2022/05/06 02:23:32;;;;;;;2.83;2.67;;;;;;;19.34;54.15;100045.63;4174543;28;20258;-31
2022/05/06 02:25:35;;;;;;;2.10;2.00;;;;;;;20.04;53.70;100027.00;4173811;28;20747;-32
2022/05/06 02:27:38;;;;;;;1.90;1.70;;;;;;;19.12;54.96;100043.16;4174740;28;20236;-32
2022/05/06 02:33:12;;;;;;;4.37;2.00;;;;;;;18.39;56.79;100049.28;4168277;28;20313;-31
2022/05/06 02:34:22;;;;;;;2.77;2.63;;;;;;;18.75;56.57;100037.31;4172422;28;20239;-31
2022/05/06 02:36:24;;;;;;;1.97;1.87;;;;;;;19.67;54.92;100025.88;4174704;28;20323;-33
2022/05/06 02:38:27;;;;;;;4.30;3.00;;;;;;;19.80;54.96;100020.44;4174418;28;20857;-32
2022/05/06 02:40:29;;;;;;;2.57;2.37;;;;;;;17.73;59.13;100040.91;4168326;28;20293;-31
2022/05/06 02:42:31;;;;;;;5.00;2.10;;;;;;;19.56;55.39;100018.44;4172778;28;20678;-32
2022/05/06 02:44:34;;;;;;;5.03;3.10;;;;;;;19.78;54.57;100022.50;4174649;28;20324;-32
2022/05/06 02:46:36;;;;;;;3.33;3.13;;;;;;;19.61;54.72;100027.56;4174110;28;20235;-33
2022/05/06 02:48:37;;;;;;;2.70;2.50;;;;;;;19.41;55.55;100032.97;4174529;28;20599;-32
2022/05/06 02:50:41;;;;;;;3.17;2.97;;;;;;;19.66;54.92;100018.84;4174036;28;20227;-33
2022/05/06 02:52:42;;;;;;;2.07;1.87;;;;;;;20.00;54.41;100016.81;4173905;28;20725;-32
2022/05/06 02:54:45;;;;;;;1.63;1.53;;;;;;;19.45;55.43;100038.75;4169670;28;20243;-31
2022/05/06 02:56:47;;;;;;;5.03;2.30;;;;;;;19.64;54.93;100028.97;4172991;28;20508;-34
2022/05/06 02:58:49;;;;;;;2.23;2.10;;;;;;;19.80;54.76;100030.41;4173757;28;20231;-33
2022/05/06 03:00:51;;;;;;;3.40;3.10;;;;;;;19.60;55.45;100033.16;4172455;28;20288;-36
2022/05/06 03:02:55;;;;;;;2.43;2.33;;;;;;;19.92;54.70;100023.28;4173789;28;20680;-34
2022/05/06 03:04:57;;;;;;;1.80;1.80;;;;;;;20.30;53.79;100024.38;4173825;28;20234;-35
2022/05/06 03:06:58;;;;;;;2.10;2.00;;;;;;;19.70;55.00;100037.06;4174436;28;20658;-33
2022/05/06 03:09:00;;;;;;;3.43;3.13;;;;;;;19.66;54.85;100037.72;4175948;28;20235;-33
2022/05/06 03:11:02;;;;;;;2.83;2.60;;;;;;;19.98;54.51;100035.13;4173715;28;20228;-31
2022/05/06 03:13:04;;;;;;;2.40;2.20;;;;;;;19.69;54.83;100040.81;4173679;28;20232;-32
2022/05/06 03:15:07;;;;;;;3.20;3.00;;;;;;;19.61;55.14;100027.56;4173659;28;20238;-31
2022/05/06 03:17:09;;;;;;;1.87;1.77;;;;;;;19.66;55.24;100029.63;4173694;28;20589;-32
2022/05/06 03:19:11;;;;;;;2.93;2.73;;;;;;;19.75;54.50;100033.72;4172919;28;20224;-33
2022/05/06 03:21:13;;;;;;;2.17;2.07;;;;;;;19.29;56.34;100032.78;4173925;28;20228;-32
2022/05/06 03:23:15;;;;;;;3.57;1.70;;;;;;;19.62;55.23;100031.91;4172241;28;20286;-34
2022/05/06 03:25:17;;;;;;;2.40;2.30;;;;;;;19.82;54.94;100022.91;4166961;28;20226;-33
2022/05/06 03:29:40;;;;;;;1.80;1.70;;;;;;;19.52;55.52;100024.22;4168144;28;20281;-34
2022/05/06 03:31:41;;;;;;;2.30;2.20;;;;;;;20.18;53.27;100014.25;4173376;28;20224;-33
2022/05/06 03:33:44;;;;;;;3.13;2.73;;;;;;;20.15;53.88;100022.78;4173594;28;20595;-33
2022/05/06 03:35:45;;;;;;;3.00;2.80;;;;;;;20.65;52.35;100016.69;4171926;28;20227;-32
2022/05/06 03:37:48;;;;;;;3.90;2.50;;;;;;;20.19;53.82;100023.97;4174132;28;20238;-31
2022/05/06 03:39:50;;;;;;;3.80;2.73;;;;;;;19.82;55.00;100037.22;4179706;28;20231;-33
2022/05/06 03:41:52;;;;;;;2.03;1.93;;;;;;;20.04;53.92;100020.75;4173534;28;21149;-31
2022/05/06 03:43:53;;;;;;;4.50;2.90;;;;;;;19.99;54.13;100025.94;4174151;28;20232;-31
2022/05/06 03:45:55;;;;;;;2.57;2.43;;;;;;;19.37;55.11;100044.38;4161102;28;20595;-33
2022/05/06 03:47:58;;;;;;;2.17;2.07;;;;;;;19.87;54.39;100032.00;4170835;28;20204;-31
2022/05/06 03:52:21;;;;;;;3.40;1.97;;;;;;;20.21;52.67;100040.81;4171939;28;20247;-34
2022/05/06 03:54:22;;;;;;;2.13;2.03;;;;;;;20.08;52.31;100038.19;4173596;28;20236;-33
2022/05/06 03:56:25;;;;;;;2.07;1.93;;;;;;;19.38;53.78;100057.66;4173826;28;20235;-33
2022/05/06 03:58:27;;;;;;;2.37;2.27;;;;;;;20.62;51.61;100031.44;4174217;28;20309;-31
2022/05/06 04:00:29;;;;;;;3.03;1.73;;;;;;;20.46;51.62;100036.53;4172968;28;20815;-32
2022/05/06 04:02:30;;;;;;;2.20;2.10;;;;;;;19.64;53.26;100064.91;4169340;28;20235;-33
2022/05/06 04:04:32;;;;;;;3.20;2.33;;;;;;;20.21;52.41;100037.25;4176077;28;20231;-34
2022/05/06 04:06:34;;;;;;;2.57;2.40;;;;;;;20.58;51.62;100042.91;4176130;28;20552;-31
2022/05/06 04:08:36;;;;;;;2.40;2.30;;;;;;;20.55;51.87;100044.16;4178113;28;20232;-31
2022/05/06 04:10:37;;;;;;;2.73;2.53;;;;;;;20.41;52.19;100048.81;4172216;28;20262;-31
2022/05/06 04:12:39;;;;;;;22.43;2.73;;;;;;;20.54;50.69;100047.91;4176485;28;20258;-31
2022/05/06 04:14:41;;;;;;;2.40;2.20;;;;;;;20.58;51.14;100049.16;4176559;28;20231;-33
2022/05/06 04:16:42;;;;;;;2.87;2.67;;;;;;;20.42;51.52;100052.34;4177299;28;20645;-31
2022/05/06 04:18:44;;;;;;;2.67;2.57;;;;;;;19.93;52.16;100064.63;4173306;28;20228;-31
2022/05/06 04:25:27;;;;;;;2.30;2.10;;;;;;;20.48;51.19;100067.69;4174308;28;20239;-31
2022/05/06 04:27:30;;;;;;;2.50;2.40;;;;;;;20.30;52.45;100067.56;4176327;28;20297;-31
2022/05/06 04:29:32;;;;;;;2.17;2.00;;;;;;;20.38;52.66;100062.78;4177119;28;20258;-32
2022/05/06 04:31:35;;;;;;;2.30;2.20;;;;;;;20.44;52.24;100066.47;4176694;28;20231;-31
2022/05/06 04:33:38;;;;;;;2.17;2.07;;;;;;;20.43;51.04;100064.78;4175229;28;20242;-31
2022/05/06 04:35:40;;;;;;;2.27;2.00;;;;;;;21.00;50.05;100056.75;4175708;28;20220;-31
2022/05/06 04:37:43;;;;;;;3.70;2.00;;;;;;;20.98;50.14;100050.75;4176158;28;20232;-31
2022/05/06 04:39:44;;;;;;;1.77;1.77;;;;;;;20.72;50.55;100066.09;4181679;28;20602;-31
2022/05/06 04:41:48;;;;;;;4.37;3.37;;;;;;;20.23;51.95;100076.53;4176761;28;20305;-31
2022/05/06 04:43:50;;;;;;;2.90;2.67;;;;;;;20.63;49.28;100067.38;4176362;28;20232;-31
2022/05/06 04:45:53;;;;;;;2.03;1.93;;;;;;;19.88;51.65;100087.66;4176483;28;20251;-32
2022/05/06 04:47:54;;;;;;;2.00;1.80;;;;;;;20.33;51.39;100081.50;4176502;28;20298;-33
2022/05/06 04:49:56;;;;;;;2.53;2.33;;;;;;;19.88;51.84;100081.44;4174170;28;20235;-32
2022/05/06 04:51:59;;;;;;;1.67;1.60;;;;;;;20.61;49.65;100074.88;4171620;28;20291;-32
2022/05/06 04:54:00;;;;;;;2.43;2.23;;;;;;;19.63;51.96;100090.19;4173739;28;20204;-31
2022/05/06 04:56:02;;;;;;;1.50;1.50;;;;;;;19.46;52.69;100089.78;4176098;28;20208;-31
2022/05/06 04:58:04;;;;;;;2.60;2.27;;;;;;;19.95;51.36;100082.22;4176161;28;20635;-34
2022/05/06 05:00:07;;;;;;;1.90;1.83;;;;;;;19.11;53.57;100098.09;4175017;28;20216;-32
2022/05/06 05:02:09;;;;;;;1.40;1.40;;;;;;;19.91;51.52;100085.56;4175934;28;20232;-33
2022/05/06 05:04:10;;;;;;;2.07;1.90;;;;;;;19.35;51.71;100089.59;4175042;28;20649;-32
2022/05/06 05:06:13;;;;;;;1.60;1.60;;;;;;;19.52;52.07;100086.25;4176105;28;20204;-32
2022/05/06 05:08:14;;;;;;;1.07;1.07;;;;;;;19.65;51.40;100090.81;4175476;28;20200;-32
2022/05/06 05:10:16;;;;;;;2.33;2.10;;;;;;;19.79;50.80;100083.53;4176886;28;20708;-31
2022/05/06 05:12:18;;;;;;;1.90;1.80;;;;;;;19.95;50.27;100084.13;4169802;28;20306;-31
2022/05/06 05:14:21;;;;;;;1.83;1.73;;;;;;;19.13;52.11;100103.28;4173792;28;20243;-31
2022/05/06 05:16:22;;;;;;;1.40;1.40;;;;;;;18.86;52.62;100097.88;4169670;28;20712;-32
2022/05/06 05:18:24;;;;;;;1.47;1.40;;;;;;;19.48;50.86;100085.00;4176400;28;20570;-31
2022/05/06 05:20:26;;;;;;;1.80;1.70;;;;;;;18.90;53.04;100093.75;4175863;28;20243;-33
2022/05/06 05:22:28;;;;;;;1.97;1.87;;;;;;;19.14;52.02;100096.88;4175218;28;20297;-30
2022/05/06 05:24:30;;;;;;;1.87;1.77;;;;;;;19.15;51.51;100093.16;4174329;28;20244;-31
2022/05/06 05:26:32;;;;;;;2.03;1.93;;;;;;;19.49;51.52;100086.69;4174444;28;20746;-30
2022/05/06 05:28:33;;;;;;;1.57;1.57;;;;;;;19.13;52.51;100087.97;4175291;28;20645;-32
2022/05/06 05:30:35;;;;;;;6.30;3.53;;;;;;;19.28;52.27;100082.31;4174761;28;20282;-32
2022/05/06 05:32:39;;;;;;;2.53;2.40;;;;;;;18.99;51.95;100085.47;4171421;28;20297;-31
2022/05/06 05:34:42;;;;;;;2.50;1.77;;;;;;;19.35;52.13;100084.19;4171361;28;20278;-32
2022/05/06 05:36:45;;;;;;;4.00;2.80;;;;;;;19.35;51.94;100087.72;4176025;28;20228;-32
2022/05/06 05:38:47;;;;;;;2.00;1.90;;;;;;;19.18;52.35;100089.19;4178354;28;20704;-30
2022/05/06 05:40:48;;;;;;;5.17;2.40;;;;;;;19.80;49.83;100079.78;4175887;28;20737;-33
2022/05/06 05:42:50;;;;;;;1.40;1.40;;;;;;;19.96;49.57;100078.50;4175023;28;20235;-31
2022/05/06 05:49:33;;;;;;;1.77;1.67;;;;;;;19.55;50.88;100093.13;4171684;28;20297;-30
2022/05/06 05:51:35;;;;;;;1.90;1.80;;;;;;;19.76;50.60;100091.19;4173798;28;20289;-34
2022/05/06 05:53:37;;;;;;;1.10;1.10;;;;;;;19.64;50.59;100091.03;4174368;28;20243;-30
2022/05/06 05:55:39;;;;;;;1.60;1.50;;;;;;;19.55;50.75;100093.13;4175402;28;20232;-30
2022/05/06 05:57:41;;;;;;;0.90;0.90;;;;;;;19.37;51.45;100092.91;4173904;28;20265;-30
2022/05/06 05:59:43;;;;;;;1.57;1.57;;;;;;;19.95;49.53;100084.13;4174660;28;20232;-29
2022/05/06 06:01:45;;;;;;;1.57;1.57;;;;;;;20.19;49.36;100083.38;4170832;28;20599;-30
2022/05/06 06:03:47;;;;;;;1.97;1.87;;;;;;;20.43;48.86;100072.91;4173981;28;20232;-31
2022/05/06 06:05:49;;;;;;;1.43;1.43;;;;;;;19.97;50.21;100082.03;4172529;28;20232;-30
2022/05/06 06:07:50;;;;;;;1.00;1.00;;;;;;;19.63;50.12;100094.78;4167271;28;20632;-31
2022/05/06 06:09:52;;;;;;;1.87;1.77;;;;;;;19.90;49.72;100086.63;4166984;28;20869;-30
2022/05/06 06:11:54;;;;;;;1.93;1.83;;;;;;;19.82;50.27;100093.06;4164813;28;20437;-30
2022/05/06 06:13:56;;;;;;;1.80;1.70;;;;;;;19.63;49.83;100090.19;4163651;28;20278;-33
2022/05/06 06:15:58;;;;;;;1.47;1.47;;;;;;;19.91;50.62;100091.81;4164170;28;20237;-30
2022/05/06 06:18:00;;;;;;;3.53;1.80;;;;;;;20.16;49.59;100088.38;4170331;28;20204;-31
2022/05/06 06:20:02;;;;;;;1.53;1.53;;;;;;;19.62;50.55;100090.41;4174759;28;20209;-30
2022/05/06 06:22:04;;;;;;;6.03;1.50;;;;;;;19.96;48.88;100083.06;4174615;28;20633;-30
2022/05/06 06:24:06;;;;;;;1.47;1.37;;;;;;;20.07;48.41;100083.22;4174012;28;20229;-31
2022/05/06 06:26:08;;;;;;;2.00;1.90;;;;;;;20.04;48.55;100088.22;4173561;28;20205;-31
2022/05/06 06:28:10;;;;;;;1.37;1.37;;;;;;;19.82;49.06;100095.75;4174729;28;20204;-30
2022/05/06 06:30:12;;;;;;;1.20;1.20;;;;;;;20.17;48.26;100088.16;4171006;28;20715;-30
2022/05/06 06:32:25;;;;;;;1.20;1.20;;;;;;;20.22;48.12;100096.44;4173578;28;20236;-30
2022/05/06 06:34:26;;;;;;;1.43;1.43;;;;;;;20.45;47.34;100095.16;4174188;28;20748;-30
2022/05/06 06:36:28;;;;;;;1.30;1.30;;;;;;;20.28;47.60;100102.06;4174280;28;20709;-33
2022/05/06 06:38:30;;;;;;;1.87;1.77;;;;;;;20.05;48.29;100096.09;4175164;28;20240;-29
2022/05/06 06:40:32;;;;;;;1.80;1.70;;;;;;;20.12;46.98;100101.47;4175665;28;20381;-29
2022/05/06 06:42:33;;;;;;;1.10;1.10;;;;;;;20.05;46.75;100104.19;4169664;28;20236;-30
2022/05/06 06:44:35;;;;;;;1.40;1.40;;;;;;;20.38;46.19;100094.31;4173841;28;20258;-31
2022/05/06 06:46:37;;;;;;;1.83;1.73;;;;;;;20.17;45.97;100111.66;4173126;28;20444;-30
2022/05/06 06:48:40;;;;;;;2.40;1.67;;;;;;;20.45;46.82;100105.94;4173415;28;20235;-30
2022/05/06 06:50:41;;;;;;;1.97;1.87;;;;;;;20.62;45.94;100103.56;4174229;28;20713;-30
2022/05/06 06:52:43;;;;;;;2.43;2.23;;;;;;;20.05;46.49;100109.59;4173567;28;20772;-30
2022/05/06 06:54:45;;;;;;;1.37;1.37;;;;;;;20.58;47.27;100108.56;4167068;28;20672;-32
2022/05/06 06:56:46;;;;;;;1.40;1.40;;;;;;;20.49;47.66;100095.53;4173468;28;20279;-30
2022/05/06 06:58:48;;;;;;;2.10;1.77;;;;;;;20.88;46.21;100089.03;4173886;28;20236;-29
2022/05/06 07:00:51;;;;;;;1.87;1.77;;;;;;;20.76;46.29;100101.59;4168885;28;20684;-30
2022/05/06 07:02:55;;;;;;;1.60;1.50;;;;;;;20.62;46.74;100103.56;4170624;28;20227;-30
2022/05/06 07:04:58;;;;;;;1.80;1.70;;;;;;;21.14;46.72;100088.03;4173942;28;20232;-31
2022/05/06 07:11:53;;;;;;;1.93;1.83;;;;;;;20.79;47.21;100090.38;4170422;28;20246;-30
2022/05/06 07:13:55;;;;;;;5.93;2.73;;;;;;;19.86;47.42;100103.22;4170713;28;20234;-30
2022/05/06 07:15:57;;;;;;;3.97;2.53;;;;;;;21.21;46.29;100081.72;4172641;28;20224;-29
2022/05/06 07:17:59;;;;;;;1.40;1.30;;;;;;;20.64;46.87;100095.25;4172864;28;20277;-29
2022/05/06 07:20:01;;;;;;;1.00;1.00;;;;;;;20.12;47.48;100101.47;4172524;28;20208;-30
2022/05/06 07:22:03;;;;;;;1.13;1.13;;;;;;;20.59;46.97;100093.19;4171388;28;20259;-29
2022/05/06 07:24:05;;;;;;;1.30;1.30;;;;;;;19.81;48.91;100108.44;4169187;28;20225;-30
2022/05/06 07:26:07;;;;;;;1.80;1.70;;;;;;;20.80;46.95;100086.59;4169259;28;20212;-32
2022/05/06 07:28:08;;;;;;;1.30;1.30;;;;;;;21.03;46.75;100080.66;4173628;28;20778;-30
2022/05/06 07:30:11;;;;;;;1.60;1.60;;;;;;;19.95;47.65;100086.81;4173651;28;20209;-30
2022/05/06 07:32:12;;;;;;;1.50;1.50;;;;;;;20.21;46.73;100081.31;4173289;28;20223;-31
2022/05/06 07:34:15;;;;;;;1.87;1.77;;;;;;;20.56;47.14;100082.81;4172268;28;20258;-31
2022/05/06 07:36:17;;;;;;;1.30;1.30;;;;;;;19.54;48.47;100094.16;4168765;28;20749;-31
2022/05/06 07:38:19;;;;;;;1.30;1.30;;;;;;;20.17;47.70;100090.88;4173489;28;20660;-31
2022/05/06 07:40:20;;;;;;;1.47;1.47;;;;;;;19.45;47.87;100100.78;4178021;28;20240;-31
2022/05/06 07:42:22;;;;;;;1.30;1.30;;;;;;;20.31;46.86;100077.34;4171754;28;20478;-30
2022/05/06 07:44:24;;;;;;;1.63;1.53;;;;;;;20.52;46.73;100076.19;4164685;28;20233;-30
2022/05/06 07:46:25;;;;;;;1.50;1.50;;;;;;;19.14;47.62;100095.00;4172135;28;20238;-30
2022/05/06 07:48:28;;;;;;;1.93;1.83;;;;;;;20.03;47.53;100079.31;4170560;28;20238;-29
2022/05/06 07:50:38;;;;;;;1.10;1.10;;;;;;;19.95;48.08;100078.72;4167338;28;20432;-32
2022/05/06 07:52:40;;;;;;;1.77;1.67;;;;;;;20.70;46.54;100059.22;4170837;28;20269;-30
2022/05/06 07:54:42;;;;;;;1.43;1.40;;;;;;;19.97;46.78;100080.16;4166975;28;20293;-30
2022/05/06 07:56:44;;;;;;;1.30;1.30;;;;;;;19.82;46.35;100077.69;4172182;28;20257;-31
2022/05/06 07:58:46;;;;;;;0.90;0.90;;;;;;;19.06;47.13;100084.41;4172194;28;20232;-32
2022/05/06 08:00:47;;;;;;;9.40;6.53;;;;;;;20.43;46.15;100062.09;4172236;28;20266;-29
2022/05/06 08:05:15;;;;;;;8.13;5.87;;;;;;;21.07;45.55;100064.81;4173492;28;20236;-30
2022/05/06 08:07:18;;;;;;;10.27;6.50;;;;;;;19.95;46.11;100078.72;4172794;28;20231;-30
2022/05/06 08:09:22;;;;;;;10.93;6.30;;;;;;;19.16;47.48;100088.56;4171139;28;20263;-30
2022/05/06 08:11:24;;;;;;;7.37;5.97;;;;;;;20.15;46.73;100065.97;4173561;28;20802;-29
2022/05/06 08:13:26;;;;;;;7.43;6.10;;;;;;;20.50;45.59;100068.31;4170324;28;20286;-30
2022/05/06 08:15:28;;;;;;;8.43;6.00;;;;;;;20.38;45.44;100076.28;4168713;28;20293;-30
2022/05/06 08:17:30;;;;;;;6.20;5.20;;;;;;;19.67;47.57;100082.50;4174418;28;20235;-30
2022/05/06 08:19:33;;;;;;;8.00;6.20;;;;;;;19.34;46.57;100086.06;4173675;28;20232;-29
2022/05/06 08:21:35;;;;;;;8.37;6.10;;;;;;;19.70;46.64;100087.50;4174133;28;20236;-32
2022/05/06 08:23:37;;;;;;;9.40;6.17;;;;;;;20.21;46.18;100065.13;4171899;28;20508;-29
2022/05/06 08:25:39;;;;;;;7.73;6.00;;;;;;;20.39;45.61;100079.78;4172440;28;20236;-32
2022/05/06 08:27:43;;;;;;;8.73;5.60;;;;;;;19.92;46.15;100092.63;4170080;28;20236;-29
2022/05/06 08:29:45;;;;;;;8.20;5.50;;;;;;;19.96;46.55;100083.91;4169248;28;20235;-29
2022/05/06 08:31:47;;;;;;;7.60;5.47;;;;;;;19.71;46.53;100086.47;4172997;28;20614;-30
2022/05/06 08:33:49;;;;;;;7.33;5.73;;;;;;;20.71;45.92;100069.00;4173581;28;20705;-30
2022/05/06 08:35:50;;;;;;;12.27;6.00;;;;;;;21.03;45.64;100074.41;4172570;28;20220;-32
2022/05/06 08:37:52;;;;;;;8.53;5.97;;;;;;;20.86;46.41;100077.63;4173153;28;20790;-29
2022/05/06 08:39:54;;;;;;;8.93;6.40;;;;;;;20.65;47.14;100081.53;4177453;28;20228;-31
2022/05/06 08:41:57;;;;;;;10.43;6.33;;;;;;;20.60;46.45;100082.16;4172461;28;20219;-30
2022/05/06 08:50:50;;;;;;;11.77;6.13;;;;;;;20.48;46.21;100081.19;4172630;28;20223;-30
2022/05/06 08:51:05;;;;;;;8.07;5.50;;;;;;;20.14;47.24;100082.38;4171963;28;20232;-30
2022/05/06 08:53:07;;;;;;;10.10;6.30;;;;;;;20.93;45.96;100067.59;4173062;28;20860;-31
2022/05/06 08:55:09;;;;;;;8.37;5.83;;;;;;;21.11;46.17;100071.44;4175937;28;20232;-32
2022/05/06 08:57:11;;;;;;;9.47;5.70;;;;;;;20.37;46.84;100079.19;4175326;28;20679;-30
2022/05/06 08:59:13;;;;;;;11.00;5.50;;;;;;;20.69;45.37;100081.91;4164113;28;20221;-30
2022/05/06 09:01:17;;;;;;;8.67;6.10;;;;;;;21.74;44.90;100070.44;4171343;28;20784;-30
2022/05/06 09:03:19;;;;;;;8.23;5.83;;;;;;;21.93;44.47;100073.94;4175548;28;20775;-32
2022/05/06 09:05:21;;;;;;;7.70;5.57;;;;;;;21.46;45.09;100077.16;4173705;28;20307;-30
2022/05/06 09:07:25;;;;;;;7.57;5.87;;;;;;;21.64;45.17;100072.81;4176697;28;20235;-29
2022/05/06 09:09:26;;;;;;;8.37;5.53;;;;;;;21.70;44.83;100086.28;4182012;28;20242;-30
2022/05/06 09:13:58;;;;;;;8.13;5.90;;;;;;;21.45;45.29;100080.06;4175472;28;20247;-29
2022/05/06 09:18:40;;;;;;;9.53;6.00;;;;;;;21.35;46.69;100078.69;4171751;28;20231;-30
2022/05/06 09:20:42;;;;;;;10.50;6.17;;;;;;;21.14;46.62;100077.22;4176715;28;20224;-31
2022/05/06 09:22:44;;;;;;;8.20;5.97;;;;;;;20.66;45.52;100087.75;4175763;28;20238;-29
2022/05/06 09:24:47;;;;;;;10.27;6.03;;;;;;;21.98;44.93;100057.03;4175689;28;20289;-29
2022/05/06 09:26:58;;;;;;;7.37;5.57;;;;;;;20.94;45.73;100077.34;4176497;28;20236;-29
2022/05/06 09:29:00;;;;;;;9.43;6.17;;;;;;;21.38;45.37;100068.47;4174501;28;20285;-30
2022/05/06 09:31:10;;;;;;;7.90;5.43;;;;;;;21.38;45.21;100069.31;4174006;28;20975;-29
2022/05/06 09:33:25;;;;;;;10.13;5.10;;;;;;;22.25;44.84;100074.63;4173400;28;20289;-29
2022/05/06 09:35:28;;;;;;;14.30;6.17;;;;;;;22.35;45.22;100060.53;4166505;28;20236;-29
2022/05/06 09:37:42;;;;;;;9.03;5.17;;;;;;;22.20;44.76;100066.34;4173343;28;20231;-31
2022/05/06 09:39:44;;;;;;;9.33;5.23;;;;;;;21.79;44.34;100072.47;4181877;28;20301;-29
2022/05/06 09:41:45;;;;;;;9.13;5.37;;;;;;;21.83;44.70;100070.94;4176251;28;20232;-30
2022/05/06 09:43:58;;;;;;;7.70;5.60;;;;;;;21.73;45.25;100071.47;4170936;28;20569;-30
2022/05/06 09:46:20;;;;;;;7.20;5.10;;;;;;;21.18;43.92;100070.31;4166948;28;20731;-32
2022/05/06 09:48:22;;;;;;;7.07;5.73;;;;;;;21.26;44.69;100057.56;4169912;28;20689;-29
2022/05/06 09:50:38;;;;;;;9.93;5.90;;;;;;;21.03;46.31;100066.31;4176638;28;20228;-29
2022/05/06 09:52:40;;;;;;;8.70;5.33;;;;;;;21.95;43.99;100062.91;4175406;28;20239;-30
2022/05/06 09:54:44;;;;;;;14.07;5.63;;;;;;;21.77;44.17;100055.63;4176098;28;20293;-30
2022/05/06 09:56:45;;;;;;;7.30;5.60;;;;;;;21.88;43.13;100062.97;4176494;28;20883;-30
2022/05/06 09:58:51;;;;;;;11.83;6.03;;;;;;;22.22;43.83;100060.66;4175669;28;20285;-30
2022/05/06 10:00:53;;;;;;;7.37;5.23;;;;;;;21.13;43.52;100078.28;4176319;28;20227;-28
2022/05/06 10:02:56;;;;;;;7.23;5.00;;;;;;;21.39;43.74;100067.44;4169603;28;20838;-33
2022/05/06 10:04:58;;;;;;;8.43;5.57;;;;;;;21.81;43.40;100071.16;4175022;28;20651;-34